Time;durP1;ratioP1;P1;durP2;ratioP2;P2;SDS_P1;SDS_P2;PMS_P1;PMS_P2;Temp;Humidity;BMP_temperature;BMP_pressure;BME280_temperature;BME280_humidity;BME280_pressure;Samples;Min_cycle;Max_cycle;Signal;HPM_P1;HPM_P2
2022/05/06 00:01:45;;;;;;;32.08;21.63;;;16.30;82.00;;;;;;4961124;28;20026;-84
2022/05/06 00:04:11;;;;;;;30.05;22.58;;;16.20;82.20;;;;;;4977330;28;20030;-84
2022/05/06 00:06:37;;;;;;;30.13;21.50;;;16.20;82.50;;;;;;4960714;28;20023;-84
2022/05/06 00:09:04;;;;;;;34.85;21.40;;;16.20;82.80;;;;;;4945123;28;20395;-84
2022/05/06 00:11:31;;;;;;;34.80;23.58;;;16.10;83.00;;;;;;4976690;28;20470;-84
2022/05/06 00:13:57;;;;;;;31.63;21.98;;;16.10;83.20;;;;;;4976710;28;20574;-84
2022/05/06 00:16:24;;;;;;;31.52;23.80;;;16.10;83.40;;;;;;4944847;28;20176;-84
2022/05/06 00:18:51;;;;;;;34.17;24.60;;;16.10;83.60;;;;;;4977047;28;20368;-84
2022/05/06 00:21:17;;;;;;;31.13;22.63;;;16.10;83.90;;;;;;4976768;28;20125;-84
2022/05/06 00:23:43;;;;;;;35.03;23.50;;;16.00;84.00;;;;;;4960786;28;20198;-84
2022/05/06 00:26:09;;;;;;;37.22;22.92;;;16.10;84.30;;;;;;4960802;28;20065;-84
2022/05/06 00:28:35;;;;;;;32.80;23.88;;;16.00;84.40;;;;;;4960738;28;20113;-84
2022/05/06 00:31:02;;;;;;;32.08;22.77;;;16.00;84.70;;;;;;4976623;28;20161;-84
2022/05/06 00:33:28;;;;;;;33.15;23.15;;;15.90;84.80;;;;;;4976465;28;20551;-84
2022/05/06 00:35:55;;;;;;;33.25;23.77;;;15.90;85.00;;;;;;4994067;28;20081;-84
2022/05/06 00:38:21;;;;;;;37.35;24.70;;;15.90;85.20;;;;;;4960272;28;20034;-84
2022/05/06 00:40:47;;;;;;;33.22;23.55;;;15.90;85.40;;;;;;4960480;28;20042;-84
2022/05/06 00:43:13;;;;;;;34.08;24.27;;;15.90;85.60;;;;;;4976804;28;20031;-84
2022/05/06 00:45:51;;;;;;;32.90;23.88;;;15.80;85.70;;;;;;4983660;28;20085;-83
2022/05/06 00:48:18;;;;;;;32.13;22.30;;;15.80;86.00;;;;;;4984638;28;20026;-84
2022/05/06 00:50:44;;;;;;;35.30;24.80;;;15.70;86.20;;;;;;4965803;28;20036;-84
2022/05/06 00:53:10;;;;;;;34.60;24.40;;;15.70;86.40;;;;;;4984414;28;20037;-84
2022/05/06 00:55:36;;;;;;;35.53;24.08;;;15.70;86.60;;;;;;4971862;28;20098;-83
2022/05/06 00:58:06;;;;;;;36.20;24.48;;;15.60;86.80;;;;;;4998829;28;20117;-83
2022/05/06 01:00:33;;;;;;;32.78;23.45;;;15.60;87.10;;;;;;4964308;28;20037;-84
2022/05/06 01:02:59;;;;;;;34.63;24.05;;;15.60;87.50;;;;;;4980600;28;20042;-83
2022/05/06 01:05:26;;;;;;;35.42;24.13;;;15.60;87.80;;;;;;4964150;28;20375;-84
2022/05/06 01:07:53;;;;;;;33.00;23.48;;;15.50;88.00;;;;;;4964380;28;20027;-84
2022/05/06 01:10:20;;;;;;;34.75;24.42;;;15.50;88.30;;;;;;4997454;28;20031;-84
2022/05/06 01:12:48;;;;;;;37.00;24.83;;;15.50;88.60;;;;;;4980076;28;20466;-84
2022/05/06 01:15:19;;;;;;;30.63;23.92;;;15.50;88.80;;;;;;4980187;28;20034;-83
2022/05/06 01:17:46;;;;;;;35.22;24.83;;;15.50;88.90;;;;;;4964313;28;20019;-83
2022/05/06 01:20:15;;;;;;;31.77;22.90;;;15.40;89.00;;;;;;4979795;28;20026;-84
2022/05/06 01:22:45;;;;;;;35.00;24.65;;;15.40;89.00;;;;;;4980325;28;20022;-84
2022/05/06 01:25:11;;;;;;;39.13;25.45;;;15.30;89.30;;;;;;4997385;28;20505;-84
2022/05/06 01:27:44;;;;;;;33.20;23.60;;;15.30;89.50;;;;;;4996993;28;20019;-84
2022/05/06 01:30:12;;;;;;;35.08;24.33;;;15.20;89.60;;;;;;4997462;28;20370;-84
2022/05/06 01:32:39;;;;;;;34.15;25.92;;;15.20;89.80;;;;;;4980132;28;20023;-84
2022/05/06 01:35:05;;;;;;;37.38;25.65;;;15.20;90.00;;;;;;4963752;28;20026;-84
2022/05/06 01:37:34;;;;;;;38.70;25.98;;;15.10;90.20;;;;;;4979393;28;20034;-84
2022/05/06 01:40:02;;;;;;;39.40;26.33;;;15.10;90.40;;;;;;4979616;28;20034;-84
2022/05/06 01:42:31;;;;;;;37.10;25.92;;;15.10;90.50;;;;;;4996471;28;20050;-84
2022/05/06 01:44:57;;;;;;;35.38;25.90;;;15.10;90.70;;;;;;4996944;28;20051;-84
2022/05/06 01:47:27;;;;;;;39.95;26.98;;;15.10;90.80;;;;;;4979255;28;20018;-84
2022/05/06 01:49:58;;;;;;;39.60;27.27;;;15.00;90.90;;;;;;4979356;28;20034;-84
2022/05/06 01:52:25;;;;;;;37.97;26.08;;;15.00;91.00;;;;;;4979270;28;20030;-84
2022/05/06 01:54:50;;;;;;;38.45;27.00;;;15.00;91.10;;;;;;4963353;28;20029;-84
2022/05/06 01:57:16;;;;;;;36.25;25.67;;;15.00;91.10;;;;;;4963264;28;20038;-84
2022/05/06 01:59:42;;;;;;;38.20;26.70;;;14.90;91.20;;;;;;4962460;28;20085;-84
2022/05/06 02:02:08;;;;;;;37.70;27.33;;;14.90;91.40;;;;;;4962807;28;20054;-84
2022/05/06 02:07:18;;;;;;;41.35;27.52;;;14.80;91.60;;;;;;4996572;28;20048;-83
2022/05/06 02:09:44;;;;;;;41.47;28.33;;;14.80;91.70;;;;;;4978950;28;20113;-84
2022/05/06 02:12:10;;;;;;;39.97;28.13;;;14.80;91.80;;;;;;4962975;28;20030;-84
2022/05/06 02:14:36;;;;;;;39.78;28.17;;;14.80;92.00;;;;;;4978850;28;20030;-84
2022/05/06 02:17:01;;;;;;;45.75;30.23;;;14.70;92.10;;;;;;4963092;28;20030;-84
2022/05/06 02:19:27;;;;;;;47.88;29.55;;;14.70;92.20;;;;;;4978562;28;20066;-84
2022/05/06 02:21:53;;;;;;;41.30;28.38;;;14.70;92.40;;;;;;4962730;28;20477;-84
2022/05/06 02:24:18;;;;;;;41.70;29.38;;;14.70;92.50;;;;;;4978749;28;20024;-84
2022/05/06 02:26:44;;;;;;;47.83;31.55;;;14.60;92.60;;;;;;4962751;28;20493;-84
2022/05/06 02:29:10;;;;;;;44.83;30.20;;;14.60;92.80;;;;;;4962722;28;20479;-83
2022/05/06 02:34:20;;;;;;;44.50;29.02;;;14.60;93.10;;;;;;4967720;28;20399;-84
2022/05/06 02:36:46;;;;;;;47.00;31.02;;;14.60;93.30;;;;;;4978322;28;20026;-84
2022/05/06 02:39:12;;;;;;;49.03;31.23;;;14.50;93.40;;;;;;4978398;28;20475;-84
2022/05/06 02:41:38;;;;;;;46.42;30.15;;;14.50;93.60;;;;;;4962188;28;20125;-84
2022/05/06 02:44:07;;;;;;;48.28;32.00;;;14.50;93.80;;;;;;4962167;28;20065;-84
2022/05/06 02:46:35;;;;;;;45.28;29.45;;;14.50;94.00;;;;;;4962603;28;20129;-84
2022/05/06 02:49:02;;;;;;;49.88;30.73;;;14.50;94.20;;;;;;4978312;28;20038;-84
2022/05/06 02:51:31;;;;;;;43.70;29.65;;;14.50;94.40;;;;;;4962078;28;20481;-84
2022/05/06 02:53:57;;;;;;;38.60;27.40;;;14.50;94.60;;;;;;4962573;28;20162;-84
2022/05/06 02:56:24;;;;;;;38.80;27.45;;;14.50;94.80;;;;;;4978135;28;20033;-84
2022/05/06 02:58:49;;;;;;;34.20;25.17;;;14.50;94.90;;;;;;4961907;28;20121;-84
2022/05/06 03:01:15;;;;;;;39.50;26.60;;;14.40;95.00;;;;;;4978336;28;20121;-84
2022/05/06 03:03:41;;;;;;;37.00;26.73;;;14.40;95.00;;;;;;4961844;28;20390;-83
2022/05/06 03:06:07;;;;;;;32.28;24.40;;;14.40;95.10;;;;;;4962007;28;20029;-84
2022/05/06 03:08:33;;;;;;;32.47;25.25;;;14.40;95.10;;;;;;4962145;28;20030;-84
2022/05/06 03:11:02;;;;;;;34.03;25.95;;;14.30;95.20;;;;;;4977096;28;20124;-84
2022/05/06 03:13:28;;;;;;;34.17;25.38;;;14.30;95.30;;;;;;4978043;28;20130;-84
2022/05/06 03:15:53;;;;;;;35.70;25.98;;;14.30;95.40;;;;;;4961511;28;20478;-84
2022/05/06 03:18:19;;;;;;;32.47;24.58;;;14.30;95.60;;;;;;4961699;28;20027;-84
2022/05/06 03:20:45;;;;;;;32.85;24.17;;;14.30;95.70;;;;;;4961430;28;20089;-84
2022/05/06 03:23:13;;;;;;;29.42;22.85;;;14.20;95.80;;;;;;4977668;28;20053;-84
2022/05/06 03:25:39;;;;;;;27.80;22.48;;;14.20;95.90;;;;;;4977241;28;20069;-84
2022/05/06 03:28:08;;;;;;;33.40;24.05;;;14.20;95.90;;;;;;4977664;28;20058;-84
2022/05/06 03:30:40;;;;;;;29.95;23.40;;;14.20;96.00;;;;;;4961394;28;20030;-84
2022/05/06 03:33:09;;;;;;;34.85;25.02;;;14.10;96.10;;;;;;4977658;28;20034;-84
2022/05/06 03:35:37;;;;;;;31.38;23.45;;;14.10;96.20;;;;;;4977392;28;20026;-83
2022/05/06 03:38:04;;;;;;;31.13;24.00;;;14.10;96.30;;;;;;4977592;28;20117;-84
2022/05/06 03:40:30;;;;;;;32.00;23.38;;;14.10;96.40;;;;;;4994737;28;20109;-84
2022/05/06 03:42:55;;;;;;;30.02;23.02;;;14.00;96.50;;;;;;4976954;28;20118;-84
2022/05/06 03:45:21;;;;;;;30.33;22.90;;;14.00;96.60;;;;;;4977366;28;20050;-84
2022/05/06 03:47:46;;;;;;;27.55;22.25;;;14.00;96.60;;;;;;4960860;28;20458;-84
2022/05/06 03:53:13;;;;;;;30.30;22.77;;;13.90;96.60;;;;;;4942382;29;20039;-83
2022/05/06 03:55:39;;;;;;;29.30;23.55;;;13.90;96.80;;;;;;4956663;28;20041;-83
2022/05/06 03:58:04;;;;;;;28.23;22.88;;;13.90;96.90;;;;;;4961191;28;20117;-84
2022/05/06 04:00:30;;;;;;;28.85;22.80;;;13.90;96.90;;;;;;4961274;28;20031;-84
2022/05/06 04:02:56;;;;;;;29.60;22.33;;;13.80;97.00;;;;;;4977207;28;20377;-84
2022/05/06 04:05:21;;;;;;;28.02;23.15;;;13.80;97.10;;;;;;4945404;28;20031;-84
2022/05/06 04:07:47;;;;;;;26.58;21.63;;;13.80;97.20;;;;;;4977395;28;20088;-84
2022/05/06 04:10:12;;;;;;;27.02;21.90;;;13.80;97.20;;;;;;4977003;28;20030;-84
2022/05/06 04:12:39;;;;;;;26.23;20.70;;;13.70;97.20;;;;;;4994276;28;20030;-85
2022/05/06 04:15:06;;;;;;;26.75;21.73;;;13.70;97.30;;;;;;4945107;28;20150;-84
2022/05/06 04:17:32;;;;;;;30.33;23.48;;;13.70;97.40;;;;;;4978428;28;20034;-83
2022/05/06 04:25:26;;;;;;;28.85;23.67;;;13.60;97.70;;;;;;4996668;28;20093;-83
2022/05/06 04:27:51;;;;;;;28.02;22.27;;;13.60;97.80;;;;;;4962859;28;20463;-84
2022/05/06 04:30:17;;;;;;;28.25;22.17;;;13.60;97.90;;;;;;4984761;28;20039;-83
2022/05/06 04:32:43;;;;;;;30.45;22.70;;;13.50;97.90;;;;;;5002408;28;20027;-84
2022/05/06 04:35:09;;;;;;;27.70;21.58;;;13.50;98.00;;;;;;4977907;28;20463;-83
2022/05/06 04:37:35;;;;;;;29.25;21.60;;;13.50;98.10;;;;;;4976816;28;20431;-84
2022/05/06 04:40:03;;;;;;;27.75;21.75;;;13.50;98.20;;;;;;4960271;28;20085;-83
2022/05/06 04:42:29;;;;;;;27.73;21.42;;;13.50;98.30;;;;;;4977062;28;20022;-84
2022/05/06 04:44:54;;;;;;;25.92;20.20;;;13.50;98.40;;;;;;4957118;28;20454;-84
2022/05/06 04:47:20;;;;;;;27.63;21.45;;;13.40;98.40;;;;;;4957645;28;20027;-83
2022/05/06 04:49:46;;;;;;;27.83;21.33;;;13.40;98.50;;;;;;4956717;28;20066;-84
2022/05/06 04:52:11;;;;;;;27.02;21.75;;;13.40;98.60;;;;;;4957432;28;20031;-83
2022/05/06 04:54:37;;;;;;;26.52;20.85;;;13.40;98.70;;;;;;4957344;28;20038;-83
2022/05/06 04:57:03;;;;;;;26.38;20.80;;;13.40;98.80;;;;;;4957174;28;20034;-83
2022/05/06 04:59:29;;;;;;;23.35;18.52;;;13.30;98.80;;;;;;4957151;28;20039;-83
2022/05/06 05:01:55;;;;;;;24.58;18.20;;;13.40;98.90;;;;;;4973143;28;20050;-84
2022/05/06 05:04:27;;;;;;;21.05;17.92;;;13.30;98.90;;;;;;4941388;28;20050;-83
2022/05/06 05:06:54;;;;;;;20.42;17.45;;;13.30;98.90;;;;;;4974394;28;20031;-83
2022/05/06 05:09:20;;;;;;;21.02;17.00;;;13.30;99.00;;;;;;4973213;28;20061;-84
2022/05/06 05:11:47;;;;;;;20.75;17.30;;;13.30;99.00;;;;;;4972975;28;20472;-84
2022/05/06 05:14:13;;;;;;;20.17;16.40;;;13.20;99.00;;;;;;4973212;28;20038;-84
2022/05/06 05:16:38;;;;;;;19.63;16.27;;;13.20;99.10;;;;;;4941083;28;20394;-84
2022/05/06 05:19:04;;;;;;;21.65;17.98;;;13.20;99.10;;;;;;4956627;28;20034;-84
2022/05/06 05:21:29;;;;;;;34.50;19.85;;;13.20;99.20;;;;;;4957156;28;20030;-84
2022/05/06 05:23:55;;;;;;;22.73;18.25;;;13.10;99.30;;;;;;4956912;28;20031;-84
2022/05/06 05:26:20;;;;;;;23.70;18.48;;;13.10;99.40;;;;;;4956832;28;20042;-83
2022/05/06 05:28:46;;;;;;;29.23;19.55;;;13.10;99.60;;;;;;4957059;28;20130;-84
2022/05/06 05:31:12;;;;;;;23.27;18.92;;;13.10;99.70;;;;;;4974326;28;20555;-84
2022/05/06 05:33:38;;;;;;;23.08;19.70;;;13.10;99.80;;;;;;4941778;28;20387;-84
2022/05/06 05:36:04;;;;;;;23.83;19.55;;;13.10;99.80;;;;;;4960547;28;20037;-85
2022/05/06 05:38:29;;;;;;;33.08;21.73;;;13.00;99.90;;;;;;4976400;28;20097;-83
2022/05/06 05:40:55;;;;;;;24.25;19.77;;;13.00;99.90;;;;;;4960438;28;20535;-84
2022/05/06 05:48:51;;;;;;;29.67;22.05;;;13.00;99.90;;;;;;4976413;28;20040;-84
2022/05/06 05:51:17;;;;;;;27.38;22.25;;;13.00;99.90;;;;;;4976043;28;20026;-84
2022/05/06 05:53:42;;;;;;;30.52;22.48;;;13.00;99.90;;;;;;4977416;28;20029;-84
2022/05/06 05:56:08;;;;;;;27.50;22.15;;;13.00;99.90;;;;;;4976561;28;20063;-83
2022/05/06 05:58:34;;;;;;;29.88;22.63;;;13.00;99.90;;;;;;4938433;28;20035;-84
2022/05/06 06:01:03;;;;;;;29.10;22.77;;;13.00;99.90;;;;;;4957065;28;20027;-82
2022/05/06 06:03:29;;;;;;;28.90;21.90;;;13.00;99.90;;;;;;4977046;28;20126;-83
2022/05/06 06:05:54;;;;;;;26.13;20.95;;;13.00;99.90;;;;;;4975389;28;20130;-84
2022/05/06 06:08:21;;;;;;;27.02;21.65;;;13.00;99.90;;;;;;4977394;28;20035;-83
2022/05/06 06:10:47;;;;;;;26.85;21.75;;;13.00;99.90;;;;;;4976152;28;20022;-83
2022/05/06 06:13:16;;;;;;;29.00;22.35;;;13.00;99.90;;;;;;4975630;28;20082;-84
2022/05/06 06:15:42;;;;;;;28.98;22.15;;;13.00;99.90;;;;;;4975476;28;20035;-84
2022/05/06 06:18:07;;;;;;;30.65;22.17;;;13.00;99.90;;;;;;4959389;28;20530;-82
2022/05/06 06:20:33;;;;;;;37.65;21.17;;;13.00;99.90;;;;;;4976805;28;20062;-82
2022/05/06 06:22:58;;;;;;;28.08;21.58;;;13.10;99.90;;;;;;4958529;28;20391;-84
2022/05/06 06:25:24;;;;;;;49.88;20.13;;;13.00;99.90;;;;;;4959577;28;20027;-84
2022/05/06 06:27:50;;;;;;;27.95;20.10;;;13.00;99.90;;;;;;4975136;28;20065;-88
2022/05/06 06:30:15;;;;;;;23.88;19.23;;;13.00;99.90;;;;;;4959245;28;20034;-84
2022/05/06 06:32:42;;;;;;;23.85;18.67;;;13.00;99.90;;;;;;4974120;28;20468;-84
2022/05/06 06:35:07;;;;;;;21.85;17.65;;;13.00;99.90;;;;;;4959086;28;20117;-82
2022/05/06 06:37:33;;;;;;;23.60;17.90;;;13.10;99.90;;;;;;4960853;28;20055;-83
2022/05/06 06:39:59;;;;;;;23.95;17.63;;;13.10;99.90;;;;;;4956322;29;20507;-84
2022/05/06 06:42:25;;;;;;;20.90;16.70;;;13.10;99.90;;;;;;4974374;28;20025;-84
2022/05/06 06:44:51;;;;;;;24.58;17.20;;;13.10;99.90;;;;;;4943284;28;20054;-84
2022/05/06 06:47:17;;;;;;;25.20;17.27;;;13.10;99.90;;;;;;4959655;28;20030;-84
2022/05/06 06:49:42;;;;;;;23.30;17.95;;;13.10;99.90;;;;;;4976505;28;20069;-84
2022/05/06 06:52:08;;;;;;;24.35;17.52;;;13.00;99.90;;;;;;4960146;28;20065;-84
2022/05/06 06:54:34;;;;;;;21.40;16.80;;;13.00;99.90;;;;;;4960326;28;20035;-85
2022/05/06 06:56:59;;;;;;;26.48;18.05;;;13.00;99.90;;;;;;4976115;28;20451;-84
2022/05/06 06:59:25;;;;;;;22.95;17.25;;;13.10;99.90;;;;;;4975759;28;20039;-83
2022/05/06 07:01:51;;;;;;;23.38;16.95;;;13.10;99.90;;;;;;4943645;28;20081;-84
2022/05/06 07:04:17;;;;;;;22.92;16.27;;;13.10;99.90;;;;;;4958891;28;20058;-84
2022/05/06 07:12:11;;;;;;;22.90;16.30;;;13.20;99.90;;;;;;4974980;28;20545;-84
2022/05/06 07:14:36;;;;;;;24.83;16.13;;;13.10;99.90;;;;;;4956858;28;20026;-84
2022/05/06 07:17:05;;;;;;;22.75;16.25;;;13.10;99.90;;;;;;4973850;28;20031;-84
2022/05/06 07:19:32;;;;;;;25.50;16.75;;;13.20;99.90;;;;;;4973386;28;20034;-85
2022/05/06 07:21:57;;;;;;;23.75;16.25;;;13.20;99.90;;;;;;4973297;28;20035;-84
2022/05/06 07:24:24;;;;;;;24.17;17.08;;;13.20;99.90;;;;;;4942601;28;20200;-83
2022/05/06 07:26:51;;;;;;;25.10;16.55;;;13.20;99.90;;;;;;4958027;28;20066;-84
2022/05/06 07:29:16;;;;;;;24.45;17.52;;;13.30;99.90;;;;;;4975249;28;20114;-83
2022/05/06 07:31:43;;;;;;;23.02;16.05;;;13.30;99.90;;;;;;4973703;28;20066;-83
2022/05/06 07:34:10;;;;;;;23.13;16.80;;;13.30;99.90;;;;;;4973604;28;20458;-84
2022/05/06 07:36:41;;;;;;;24.77;17.10;;;13.40;99.90;;;;;;4975002;28;20069;-84
2022/05/06 07:39:11;;;;;;;32.13;15.90;;;13.40;99.90;;;;;;4973054;28;20538;-84
2022/05/06 07:41:37;;;;;;;23.25;16.48;;;13.40;99.90;;;;;;4941659;28;20488;-84
2022/05/06 07:44:02;;;;;;;23.20;16.58;;;13.50;99.90;;;;;;4973567;28;20054;-85
2022/05/06 07:46:28;;;;;;;24.08;17.45;;;13.50;99.90;;;;;;4941240;28;20161;-84
2022/05/06 07:48:53;;;;;;;24.30;17.48;;;13.50;99.90;;;;;;4957454;28;20494;-84
2022/05/06 07:51:19;;;;;;;24.95;18.38;;;13.60;99.90;;;;;;4957022;28;20078;-84
2022/05/06 07:53:44;;;;;;;25.45;17.80;;;13.60;99.90;;;;;;4973104;28;20026;-84
2022/05/06 07:56:11;;;;;;;23.13;16.63;;;13.60;99.90;;;;;;4956477;28;20027;-85
2022/05/06 07:58:40;;;;;;;21.73;16.55;;;13.60;99.90;;;;;;4941440;28;20121;-84
2022/05/06 08:01:06;;;;;;;25.40;17.85;;;13.70;99.90;;;;;;4972624;28;20034;-85
2022/05/06 08:06:16;;;;;;;20.65;16.60;;;13.70;99.90;;;;;;4954970;28;20062;-84
2022/05/06 08:08:42;;;;;;;20.95;16.02;;;13.70;99.90;;;;;;4973325;28;20030;-83
2022/05/06 08:11:07;;;;;;;19.95;16.25;;;13.70;99.90;;;;;;4957217;28;20031;-84
2022/05/06 08:13:33;;;;;;;20.10;15.05;;;13.70;99.90;;;;;;4957709;28;20023;-84
2022/05/06 08:15:59;;;;;;;22.05;16.35;;;13.80;99.90;;;;;;4973520;28;20387;-85
2022/05/06 08:18:25;;;;;;;21.38;16.13;;;13.80;99.90;;;;;;4973261;28;20475;-83
2022/05/06 08:20:54;;;;;;;19.33;15.48;;;13.90;99.90;;;;;;4973518;28;20390;-84
2022/05/06 08:23:21;;;;;;;19.85;15.10;;;13.90;99.90;;;;;;4974066;28;20069;-84
2022/05/06 08:25:47;;;;;;;18.83;14.38;;;13.90;99.90;;;;;;4957377;28;20487;-83
2022/05/06 08:28:14;;;;;;;17.77;13.82;;;14.00;99.90;;;;;;4956708;28;20521;-83
2022/05/06 08:30:40;;;;;;;19.00;14.80;;;14.00;99.90;;;;;;4974233;28;20480;-83
2022/05/06 08:33:05;;;;;;;19.20;14.25;;;14.00;99.90;;;;;;4972556;28;20395;-83
2022/05/06 08:35:32;;;;;;;18.70;14.18;;;14.10;99.90;;;;;;4973425;28;20038;-83
2022/05/06 08:37:58;;;;;;;18.80;13.73;;;14.10;99.90;;;;;;4957056;28;20035;-83
2022/05/06 08:40:31;;;;;;;18.85;14.50;;;14.10;99.90;;;;;;4972815;28;20114;-83
2022/05/06 08:42:57;;;;;;;20.35;15.63;;;14.10;99.90;;;;;;4973116;28;20027;-84
2022/05/06 08:50:55;;;;;;;23.02;15.63;;;14.20;99.90;;;;;;4973327;28;20054;-84
2022/05/06 08:53:42;;;;;;;21.80;16.80;;;14.20;99.90;;;;;;4956760;28;20387;-87
2022/05/06 08:56:08;;;;;;;22.75;15.60;;;14.20;99.90;;;;;;4973377;28;20114;-88
2022/05/06 08:58:35;;;;;;;22.80;15.10;;;14.20;99.90;;;;;;4973299;28;20034;-87
2022/05/06 09:01:12;;;;;;;20.98;14.88;;;14.20;99.90;;;;;;4974572;28;20035;-88
2022/05/06 09:03:39;;;;;;;18.23;13.05;;;14.30;99.90;;;;;;4973576;28;20427;-88
2022/05/06 09:06:05;;;;;;;18.88;12.98;;;14.30;99.90;;;;;;4973110;28;20576;-87
2022/05/06 09:08:37;;;;;;;17.98;12.43;;;14.40;99.90;;;;;;4958298;28;20051;-86
2022/05/06 09:11:08;;;;;;;15.55;11.82;;;14.40;99.90;;;;;;4976955;28;20109;-87
2022/05/06 09:13:38;;;;;;;13.73;10.47;;;14.50;99.90;;;;;;4977327;28;20038;-87
2022/05/06 09:16:44;;;;;;;12.82;10.38;;;14.60;99.90;;;;;;4977119;28;20031;-92
2022/05/06 09:19:21;;;;;;;13.05;10.23;;;14.60;99.90;;;;;;4977738;28;20026;-86
2022/05/06 09:22:06;;;;;;;14.45;11.05;;;14.70;99.90;;;;;;4960584;28;20035;-86
2022/05/06 09:24:33;;;;;;;13.60;11.05;;;14.80;99.90;;;;;;4976413;28;20049;-85
2022/05/06 09:27:02;;;;;;;12.98;10.48;;;14.80;99.90;;;;;;4977425;28;20023;-85
2022/05/06 09:29:33;;;;;;;13.23;10.80;;;14.90;99.90;;;;;;4976196;28;20026;-84
2022/05/06 09:32:20;;;;;;;12.05;9.95;;;14.90;99.90;;;;;;4976379;28;20027;-84
2022/05/06 09:34:47;;;;;;;12.23;10.30;;;15.00;99.90;;;;;;4977729;28;20034;-84
2022/05/06 09:37:32;;;;;;;11.95;10.35;;;15.10;99.90;;;;;;4960269;28;20037;-84
2022/05/06 09:40:21;;;;;;;11.27;9.88;;;15.10;99.90;;;;;;4977061;28;20042;-84
2022/05/06 09:43:00;;;;;;;11.65;8.98;;;15.20;99.90;;;;;;4976172;28;20101;-84
2022/05/06 09:45:39;;;;;;;11.55;9.65;;;15.30;99.90;;;;;;4976040;28;20134;-84
2022/05/06 09:48:10;;;;;;;11.43;9.68;;;15.40;99.90;;;;;;4945841;28;20049;-85
2022/05/06 09:50:48;;;;;;;11.57;8.90;;;15.50;99.90;;;;;;4960901;28;20030;-85
2022/05/06 09:53:17;;;;;;;12.15;10.25;;;15.60;99.90;;;;;;4977742;28;20144;-85
2022/05/06 09:55:45;;;;;;;12.38;9.85;;;15.60;99.90;;;;;;4985353;28;20023;-85
2022/05/06 09:58:11;;;;;;;12.18;9.82;;;15.70;99.90;;;;;;4985348;28;20039;-85
2022/05/06 10:00:40;;;;;;;10.70;9.55;;;15.80;99.90;;;;;;4979765;28;20043;-85
2022/05/06 10:03:09;;;;;;;9.98;8.88;;;15.80;99.90;;;;;;4985926;28;20379;-90
2022/05/06 10:05:36;;;;;;;11.85;8.68;;;15.90;99.90;;;;;;4987226;28;20030;-89
2022/05/06 10:08:06;;;;;;;9.80;8.10;;;16.00;99.90;;;;;;4980998;28;20013;-91
2022/05/06 10:10:38;;;;;;;13.30;9.35;;;16.10;99.90;;;;;;4998066;28;20034;-90
2022/05/06 10:13:15;;;;;;;10.57;9.13;;;16.20;99.90;;;;;;4997022;28;20003;-90
2022/05/06 10:15:40;;;;;;;10.85;8.45;;;16.30;99.90;;;;;;4995220;28;20018;-89
2022/05/06 10:18:09;;;;;;;10.70;8.40;;;16.40;99.90;;;;;;4978135;28;20035;-89
2022/05/06 10:23:08;;;;;;;10.93;8.00;;;16.50;99.90;;;;;;4988068;28;20035;-92
2022/05/06 10:25:42;;;;;;;10.75;8.15;;;16.60;99.90;;;;;;4981018;28;20026;-90
2022/05/06 10:34:13;;;;;;;9.65;7.53;;;16.90;99.90;;;;;;4978715;28;20793;-89
2022/05/06 10:36:52;;;;;;;8.48;7.25;;;16.90;99.90;;;;;;4959633;28;20022;-88
2022/05/06 10:39:17;;;;;;;9.73;6.45;;;17.00;99.90;;;;;;4974998;28;20033;-89
2022/05/06 10:42:02;;;;;;;7.88;6.20;;;17.10;99.90;;;;;;4977460;28;20023;-88
2022/05/06 10:44:39;;;;;;;7.65;5.78;;;17.20;99.90;;;;;;4979529;28;20057;-87
2022/05/06 10:47:36;;;;;;;5.80;4.45;;;17.30;99.90;;;;;;4979120;28;20038;-88
2022/05/06 10:50:13;;;;;;;6.43;5.10;;;17.30;99.90;;;;;;4979069;28;20026;-90
2022/05/06 10:52:40;;;;;;;5.88;3.97;;;17.40;99.90;;;;;;4996096;28;20026;-89
2022/05/06 10:55:06;;;;;;;12.25;5.35;;;17.50;99.90;;;;;;4996403;28;20101;-88
2022/05/06 10:57:51;;;;;;;7.10;4.95;;;17.50;99.90;;;;;;4996000;28;20570;-88
2022/05/06 11:00:17;;;;;;;6.57;5.28;;;17.60;99.90;;;;;;4969786;28;20048;-90
2022/05/06 11:02:43;;;;;;;8.00;5.75;;;17.70;99.90;;;;;;4979051;28;20019;-89
2022/05/06 11:05:17;;;;;;;8.02;5.10;;;17.80;99.90;;;;;;4978855;28;20045;-90
2022/05/06 11:07:48;;;;;;;5.93;4.68;;;17.90;99.90;;;;;;4996228;28;20042;-90
2022/05/06 11:10:19;;;;;;;7.22;4.55;;;18.00;99.90;;;;;;4993575;28;20050;-92
2022/05/06 11:12:49;;;;;;;7.60;5.25;;;18.10;99.60;;;;;;4996066;28;20078;-89
2022/05/06 11:15:25;;;;;;;6.35;5.35;;;18.10;99.40;;;;;;4996286;28;20030;-90
2022/05/06 11:17:54;;;;;;;6.03;4.70;;;18.20;98.90;;;;;;4978674;28;20033;-90
2022/05/06 11:20:26;;;;;;;6.88;4.40;;;18.30;98.70;;;;;;4995664;28;20475;-88
2022/05/06 11:23:13;;;;;;;5.18;4.10;;;18.30;98.40;;;;;;4978214;28;20025;-89
2022/05/06 11:25:50;;;;;;;4.90;4.00;;;18.50;98.10;;;;;;4991368;28;20026;-88
2022/05/06 11:28:21;;;;;;;5.47;4.10;;;18.50;98.00;;;;;;4976565;28;20033;-88
2022/05/06 11:30:48;;;;;;;5.60;4.40;;;18.60;97.60;;;;;;4977095;28;20027;-87
2022/05/06 11:33:20;;;;;;;4.85;4.30;;;18.70;97.10;;;;;;4961426;28;20030;-87
2022/05/06 11:35:47;;;;;;;7.15;4.38;;;18.80;96.80;;;;;;4983107;28;20022;-87
2022/05/06 11:38:13;;;;;;;6.20;4.60;;;18.90;96.60;;;;;;4969575;28;20023;-87
2022/05/06 11:40:39;;;;;;;8.25;5.05;;;19.00;95.60;;;;;;4978153;28;20031;-87
2022/05/06 11:43:07;;;;;;;7.13;4.90;;;19.00;95.30;;;;;;4977918;28;20068;-88
2022/05/06 11:48:24;;;;;;;6.10;4.80;;;19.20;94.90;;;;;;4996862;28;20498;-88
2022/05/06 11:50:56;;;;;;;6.65;4.30;;;19.30;94.90;;;;;;4997884;28;20022;-88
2022/05/06 11:53:27;;;;;;;5.25;4.32;;;19.40;94.70;;;;;;4997721;28;20022;-87
2022/05/06 11:55:55;;;;;;;6.78;5.43;;;19.50;94.50;;;;;;4980594;28;20021;-88
2022/05/06 11:58:22;;;;;;;5.97;3.95;;;19.60;94.20;;;;;;4998837;28;20517;-88
2022/05/06 12:00:50;;;;;;;7.10;4.20;;;19.60;94.00;;;;;;4981158;28;20037;-87
2022/05/06 12:03:16;;;;;;;5.85;4.05;;;19.70;93.60;;;;;;5001208;28;20054;-88
2022/05/06 12:05:42;;;;;;;5.53;3.60;;;19.80;93.00;;;;;;4981880;28;20026;-87
2022/05/06 12:08:08;;;;;;;5.38;3.72;;;19.80;92.80;;;;;;4998513;28;20017;-87
2022/05/06 12:10:36;;;;;;;6.40;3.75;;;19.90;92.10;;;;;;4997560;28;20026;-88
2022/05/06 12:13:07;;;;;;;5.40;3.38;;;20.00;92.20;;;;;;4998966;28;20089;-87
2022/05/06 12:15:43;;;;;;;5.50;4.25;;;20.10;92.10;;;;;;5000248;28;20025;-89
2022/05/06 12:18:10;;;;;;;4.30;3.40;;;20.10;91.60;;;;;;5016731;28;20027;-84
2022/05/06 12:20:41;;;;;;;4.13;3.03;;;20.20;91.40;;;;;;4982820;28;20042;-86
2022/05/06 12:23:29;;;;;;;5.45;4.05;;;20.30;91.60;;;;;;4992386;28;20026;-87
2022/05/06 12:25:55;;;;;;;6.72;4.57;;;20.40;91.70;;;;;;5003154;28;20026;-85
2022/05/06 12:28:21;;;;;;;6.47;5.32;;;20.50;91.50;;;;;;4983426;28;20045;-86
2022/05/06 12:30:59;;;;;;;6.93;5.57;;;20.50;90.80;;;;;;4981158;28;20034;-86
2022/05/06 12:33:36;;;;;;;8.18;5.65;;;20.60;90.30;;;;;;4994823;28;20060;-84
2022/05/06 12:36:04;;;;;;;9.35;5.43;;;20.70;90.00;;;;;;4977180;28;20367;-83
2022/05/06 12:38:39;;;;;;;10.40;5.85;;;20.80;89.70;;;;;;4975626;28;20538;-84
2022/05/06 12:41:25;;;;;;;7.55;6.07;;;20.90;89.50;;;;;;4991896;28;20497;-86
2022/05/06 12:43:52;;;;;;;6.10;5.15;;;21.00;88.90;;;;;;4996519;28;20030;-83
2022/05/06 12:46:33;;;;;;;9.43;6.07;;;21.00;88.30;;;;;;4998069;28;20046;-83
2022/05/06 12:51:45;;;;;;;7.78;5.97;;;21.20;88.20;;;;;;4997775;28;20081;-84
2022/05/06 12:54:12;;;;;;;8.15;6.25;;;21.30;87.90;;;;;;4997902;28;20110;-83
2022/05/06 12:56:39;;;;;;;8.05;5.78;;;21.30;87.60;;;;;;4964017;28;20073;-84
2022/05/06 12:59:06;;;;;;;7.32;5.75;;;21.40;86.80;;;;;;4963940;28;20027;-84
2022/05/06 13:01:32;;;;;;;7.03;4.68;;;21.50;86.30;;;;;;4997496;28;20034;-84
2022/05/06 13:03:58;;;;;;;8.23;5.18;;;21.60;86.60;;;;;;4980063;28;20031;-84
2022/05/06 13:06:24;;;;;;;8.02;5.80;;;21.60;86.90;;;;;;4980086;28;20421;-84
2022/05/06 13:08:50;;;;;;;6.35;4.63;;;21.70;86.50;;;;;;4979886;28;20050;-84
2022/05/06 13:11:15;;;;;;;6.45;5.03;;;21.80;85.70;;;;;;4963839;28;20553;-84
2022/05/06 13:13:41;;;;;;;7.72;6.03;;;21.90;86.00;;;;;;4979584;28;20031;-83
2022/05/06 13:16:08;;;;;;;9.45;6.28;;;22.00;86.00;;;;;;4964074;28;20390;-83
2022/05/06 13:18:34;;;;;;;8.32;6.55;;;22.00;84.30;;;;;;4979683;28;20064;-84
2022/05/06 13:21:00;;;;;;;8.77;7.13;;;22.10;84.30;;;;;;4979676;28;20394;-83
2022/05/06 13:23:26;;;;;;;9.30;7.32;;;22.20;83.60;;;;;;4996925;28;20022;-84